Time;durP1;ratioP1;P1;durP2;ratioP2;P2;SDS_P1;SDS_P2;PMS_P1;PMS_P2;Temp;Humidity;BMP_temperature;BMP_pressure;BME280_temperature;BME280_humidity;BME280_pressure;Samples;Min_cycle;Max_cycle;Signal;HPM_P1;HPM_P2
2022/02/21 00:00:32;;;;;;;1.75;1.00;;;;;;;8.79;78.03;98600.34;5052525;28;20036;-23
2022/02/21 00:02:57;;;;;;;1.45;0.88;;;;;;;8.81;77.92;98574.00;5053101;28;20148;-23
2022/02/21 00:05:23;;;;;;;3.13;1.02;;;;;;;8.80;77.62;98567.88;5051605;28;20437;-22
2022/02/21 00:07:48;;;;;;;1.33;1.10;;;;;;;8.82;77.90;98547.66;5051037;28;20104;-23
2022/02/21 00:10:15;;;;;;;1.45;1.15;;;;;;;8.83;77.59;98546.75;5055763;28;20406;-23
2022/02/21 00:12:41;;;;;;;1.73;1.00;;;;;;;8.87;77.63;98541.38;5050813;28;20383;-23
2022/02/21 00:15:07;;;;;;;2.17;1.30;;;;;;;8.87;77.77;98546.63;5051277;28;20041;-23
2022/02/21 00:17:33;;;;;;;1.95;1.02;;;;;;;8.85;77.40;98518.66;5048856;28;20438;-23
2022/02/21 00:19:58;;;;;;;2.90;0.95;;;;;;;8.90;77.35;98530.75;5050924;28;20046;-23
2022/02/21 00:22:26;;;;;;;1.10;1.05;;;;;;;8.91;77.27;98517.56;5051264;28;20119;-23
2022/02/21 00:24:52;;;;;;;2.67;1.08;;;;;;;8.92;77.30;98526.28;5055666;28;20086;-23
2022/02/21 00:27:17;;;;;;;1.67;0.88;;;;;;;8.94;77.17;98540.25;5048828;28;20112;-22
2022/02/21 00:29:43;;;;;;;1.48;1.23;;;;;;;8.95;77.17;98505.16;5049233;28;20100;-23
2022/02/21 00:32:08;;;;;;;1.25;0.80;;;;;;;8.96;77.03;98510.34;5049965;28;20441;-22
2022/02/21 00:34:34;;;;;;;2.00;1.63;;;;;;;8.96;77.10;98486.69;5052106;28;20029;-23
2022/02/21 00:36:59;;;;;;;1.35;0.88;;;;;;;8.99;77.01;98483.06;5058343;28;20168;-23
2022/02/21 00:39:24;;;;;;;0.93;0.90;;;;;;;8.97;76.97;98469.16;5051814;28;20407;-23
2022/02/21 00:41:50;;;;;;;1.40;0.93;;;;;;;9.01;76.88;98460.22;5051051;28;21208;-23
2022/02/21 00:44:15;;;;;;;1.63;1.20;;;;;;;9.01;77.12;98433.94;5046470;28;20492;-23
2022/02/21 00:46:40;;;;;;;1.17;1.08;;;;;;;9.01;76.74;98430.44;5050929;28;20025;-23
2022/02/21 00:49:06;;;;;;;0.93;0.93;;;;;;;9.02;76.82;98409.34;5049916;28;20079;-23
2022/02/21 00:51:32;;;;;;;2.60;0.93;;;;;;;9.04;76.72;98386.47;5051218;28;20032;-23
2022/02/21 00:53:57;;;;;;;1.30;1.20;;;;;;;9.03;76.63;98390.00;5048835;28;20025;-22
2022/02/21 00:56:22;;;;;;;1.00;1.00;;;;;;;9.04;76.49;98383.84;5051040;28;20025;-23
2022/02/21 00:58:48;;;;;;;1.80;1.20;;;;;;;9.05;76.26;98369.78;5051439;28;20094;-23
2022/02/21 01:01:13;;;;;;;2.67;1.27;;;;;;;9.05;76.33;98377.69;5052055;28;20028;-22
2022/02/21 01:03:39;;;;;;;1.10;1.10;;;;;;;9.08;76.42;98382.81;5052306;28;20028;-23
2022/02/21 01:06:04;;;;;;;1.00;0.90;;;;;;;9.08;76.24;98359.16;5053507;28;20108;-22
2022/02/21 01:08:30;;;;;;;2.13;1.10;;;;;;;9.09;76.17;98326.66;5049296;28;20424;-23
2022/02/21 01:10:55;;;;;;;1.48;1.17;;;;;;;9.09;76.17;98339.81;5050354;28;20021;-23
2022/02/21 01:13:21;;;;;;;2.28;0.95;;;;;;;9.13;76.12;98329.19;5061231;28;20029;-23
2022/02/21 01:15:46;;;;;;;1.67;1.10;;;;;;;9.12;75.91;98336.19;5054444;28;20078;-23
2022/02/21 01:18:12;;;;;;;1.15;1.05;;;;;;;9.10;75.90;98332.78;5061895;28;20032;-23
2022/02/21 01:20:37;;;;;;;1.77;1.00;;;;;;;9.13;75.78;98316.03;5053777;28;20017;-23
2022/02/21 01:23:03;;;;;;;1.15;1.13;;;;;;;9.11;75.67;98316.94;5052141;28;20032;-23
2022/02/21 01:25:28;;;;;;;1.10;0.80;;;;;;;9.14;75.88;98330.88;5051685;28;20040;-23
2022/02/21 01:27:53;;;;;;;2.15;1.02;;;;;;;9.14;75.74;98299.31;5053664;28;20375;-23
2022/02/21 01:30:19;;;;;;;0.90;0.90;;;;;;;9.15;75.76;98309.78;5052935;28;20025;-23
2022/02/21 01:32:44;;;;;;;1.90;0.80;;;;;;;9.14;75.85;98287.00;5051765;28;20021;-23
2022/02/21 01:35:10;;;;;;;1.02;0.80;;;;;;;9.14;75.79;98275.66;5052804;28;20753;-23
2022/02/21 01:37:35;;;;;;;1.30;0.80;;;;;;;9.13;75.57;98280.06;5046869;28;20036;-23
2022/02/21 01:40:02;;;;;;;0.80;0.80;;;;;;;9.15;75.50;98277.38;5049910;28;20048;-23
2022/02/21 01:42:27;;;;;;;1.25;0.85;;;;;;;9.14;75.65;98301.97;5049489;28;20127;-23
2022/02/21 01:44:53;;;;;;;1.15;0.70;;;;;;;9.17;75.64;98276.38;5048561;28;20108;-23
2022/02/21 01:47:20;;;;;;;2.17;1.02;;;;;;;9.18;75.36;98285.13;5051068;28;20028;-23
2022/02/21 01:49:46;;;;;;;2.35;0.90;;;;;;;9.18;75.47;98279.88;5056522;28;20068;-23
2022/02/21 01:52:12;;;;;;;1.25;0.70;;;;;;;9.17;75.63;98286.88;5052555;28;20676;-23
2022/02/21 01:54:38;;;;;;;2.05;0.70;;;;;;;9.17;76.00;98279.00;5052791;28;20048;-23
2022/02/21 01:57:04;;;;;;;0.70;0.60;;;;;;;9.18;75.92;98290.38;5050925;28;20383;-23
2022/02/21 01:59:32;;;;;;;1.00;0.88;;;;;;;9.18;76.01;98298.28;5051759;28;20410;-23
2022/02/21 02:01:58;;;;;;;0.88;0.80;;;;;;;9.17;76.64;98301.84;5052514;28;20024;-23
2022/02/21 02:04:25;;;;;;;1.58;0.60;;;;;;;9.15;77.25;98311.56;5047183;28;20399;-23
2022/02/21 02:06:51;;;;;;;0.70;0.70;;;;;;;9.15;76.81;98338.72;5050685;28;20043;-23
2022/02/21 02:09:16;;;;;;;0.68;0.68;;;;;;;9.16;77.36;98350.06;5048319;28;20037;-23
2022/02/21 02:11:42;;;;;;;1.80;1.20;;;;;;;9.14;77.23;98376.44;5050733;28;20024;-23
2022/02/21 02:14:08;;;;;;;1.20;0.90;;;;;;;9.13;77.36;98423.84;5051449;28;20033;-23
2022/02/21 02:16:34;;;;;;;1.60;0.75;;;;;;;9.11;78.18;98472.09;5048300;28;20035;-23
2022/02/21 02:18:59;;;;;;;3.90;1.00;;;;;;;9.08;78.66;98498.53;5051942;28;20751;-22
2022/02/21 02:21:26;;;;;;;4.50;1.40;;;;;;;9.06;78.48;98489.81;5049005;28;20068;-23
2022/02/21 02:23:52;;;;;;;3.83;1.17;;;;;;;9.04;78.24;98452.19;5049871;28;20032;-22
2022/02/21 02:26:20;;;;;;;1.75;0.77;;;;;;;8.97;77.11;98429.72;5047742;28;20043;-23
2022/02/21 02:28:46;;;;;;;1.70;0.73;;;;;;;8.92;76.71;98439.53;5049485;28;20200;-22
2022/02/21 02:31:12;;;;;;;0.52;0.52;;;;;;;8.87;76.15;98430.97;5048180;28;20072;-23
2022/02/21 02:33:37;;;;;;;1.00;0.50;;;;;;;8.82;75.43;98418.88;5049378;28;20047;-23
2022/02/21 02:36:05;;;;;;;1.05;0.40;;;;;;;8.75;75.28;98422.63;5049038;28;20383;-23
2022/02/21 02:38:31;;;;;;;1.50;0.60;;;;;;;8.71;75.85;98416.63;5049131;28;20029;-23
2022/02/21 02:40:56;;;;;;;0.93;0.45;;;;;;;8.67;75.13;98428.16;5049276;28;20071;-22
2022/02/21 02:43:22;;;;;;;1.38;0.77;;;;;;;8.62;74.83;98448.50;5048685;28;20029;-23
2022/02/21 02:45:48;;;;;;;1.23;0.70;;;;;;;8.54;74.71;98456.66;5049555;28;20021;-23
2022/02/21 02:48:13;;;;;;;1.48;0.55;;;;;;;8.53;74.83;98438.28;5048250;28;20583;-23
2022/02/21 02:50:39;;;;;;;0.57;0.50;;;;;;;8.47;74.83;98444.63;5051277;28;20035;-23
2022/02/21 02:53:04;;;;;;;0.40;0.40;;;;;;;8.43;75.31;98456.16;5051765;28;20031;-23
2022/02/21 02:55:29;;;;;;;0.50;0.45;;;;;;;8.38;75.08;98451.09;5050346;28;20025;-23
2022/02/21 02:57:55;;;;;;;0.60;0.60;;;;;;;8.32;74.66;98444.28;5047833;28;20120;-23
2022/02/21 03:00:20;;;;;;;0.50;0.50;;;;;;;8.27;74.77;98443.59;5051723;28;20103;-23
2022/02/21 03:02:46;;;;;;;1.70;0.63;;;;;;;8.23;74.63;98447.22;5045267;28;20392;-22
2022/02/21 03:05:11;;;;;;;0.50;0.50;;;;;;;8.18;74.68;98425.53;5044784;28;20533;-23
2022/02/21 03:07:36;;;;;;;0.65;0.50;;;;;;;8.14;74.93;98423.94;5051207;28;20044;-22
2022/02/21 03:10:03;;;;;;;0.50;0.50;;;;;;;8.08;74.77;98432.88;5053393;28;20036;-23
2022/02/21 03:12:28;;;;;;;0.50;0.50;;;;;;;8.04;74.71;98468.03;5053233;28;20024;-23
2022/02/21 03:14:54;;;;;;;0.60;0.60;;;;;;;7.98;74.82;98469.09;5053456;28;20021;-23
2022/02/21 03:17:19;;;;;;;0.93;0.40;;;;;;;7.94;74.59;98470.13;5051124;28;20025;-23
2022/02/21 03:19:44;;;;;;;1.05;0.50;;;;;;;7.91;74.84;98478.94;5053241;28;20017;-22
2022/02/21 03:22:10;;;;;;;0.55;0.55;;;;;;;7.85;74.58;98483.53;5053294;28;20188;-23
2022/02/21 03:24:35;;;;;;;1.20;0.70;;;;;;;7.78;74.45;98494.25;5055129;28;20029;-23
2022/02/21 03:27:00;;;;;;;0.60;0.60;;;;;;;7.75;74.26;98503.97;5052540;28;20037;-23
2022/02/21 03:29:26;;;;;;;0.45;0.45;;;;;;;7.69;74.14;98508.53;5051249;28;20496;-23
2022/02/21 03:31:51;;;;;;;1.23;0.70;;;;;;;7.67;74.31;98510.31;5050057;28;20029;-23
2022/02/21 03:34:17;;;;;;;0.45;0.45;;;;;;;7.63;74.12;98526.19;5052998;28;20033;-23
2022/02/21 03:36:42;;;;;;;0.80;0.80;;;;;;;7.60;74.67;98516.66;5052514;28;20598;-23
2022/02/21 03:39:07;;;;;;;0.70;0.70;;;;;;;7.56;74.69;98494.94;5053276;28;20043;-22
2022/02/21 03:41:34;;;;;;;1.23;0.80;;;;;;;7.54;74.56;98493.28;5055873;28;20502;-23
2022/02/21 03:44:01;;;;;;;0.73;0.70;;;;;;;7.51;74.68;98480.25;5049868;28;20020;-23
2022/02/21 03:46:27;;;;;;;1.42;1.30;;;;;;;7.46;74.18;98477.75;5049379;28;20032;-23
2022/02/21 03:48:52;;;;;;;0.80;0.80;;;;;;;7.44;74.67;98474.34;5051849;28;20029;-23
2022/02/21 03:51:17;;;;;;;0.80;0.80;;;;;;;7.42;74.60;98470.91;5051440;28;20044;-25
2022/02/21 03:53:43;;;;;;;1.30;0.93;;;;;;;7.39;74.68;98477.09;5051337;28;20041;-25
2022/02/21 03:56:08;;;;;;;0.95;0.90;;;;;;;7.37;74.70;98493.78;5050505;28;20029;-25
2022/02/21 03:58:33;;;;;;;1.42;0.93;;;;;;;7.31;74.62;98485.19;5044709;28;20037;-24
2022/02/21 04:00:59;;;;;;;1.15;1.05;;;;;;;7.31;74.71;98511.41;5051612;28;20033;-24
2022/02/21 04:03:24;;;;;;;1.27;1.13;;;;;;;7.27;75.02;98541.25;5052685;28;20025;-24
2022/02/21 04:05:49;;;;;;;2.05;1.00;;;;;;;7.22;74.82;98537.94;5049237;28;20037;-24
2022/02/21 04:08:15;;;;;;;1.00;1.00;;;;;;;7.18;74.41;98536.31;5052678;28;20082;-24
2022/02/21 04:10:40;;;;;;;1.25;1.08;;;;;;;7.16;74.75;98543.34;5051798;28;20035;-23
2022/02/21 04:13:05;;;;;;;1.48;1.38;;;;;;;7.12;74.52;98546.97;5053578;28;20035;-24
2022/02/21 04:15:31;;;;;;;1.35;1.25;;;;;;;7.06;74.34;98533.13;5054566;28;20123;-24
2022/02/21 04:17:56;;;;;;;1.70;1.00;;;;;;;7.04;74.17;98508.72;5052291;28;20467;-25
2022/02/21 04:20:23;;;;;;;1.00;1.00;;;;;;;7.01;74.21;98524.53;5051486;28;20021;-24
2022/02/21 04:22:49;;;;;;;1.45;1.15;;;;;;;6.96;73.54;98550.03;5063857;28;20021;-24
2022/02/21 04:25:15;;;;;;;1.30;1.20;;;;;;;6.94;73.65;98557.09;5069151;28;20074;-24
2022/02/21 04:27:51;;;;;;;1.17;1.17;;;;;;;6.90;73.68;98561.53;5061929;28;20033;-24
2022/02/21 04:30:19;;;;;;;1.30;1.20;;;;;;;6.87;72.54;98568.63;5059804;28;20494;-24
2022/02/21 04:32:47;;;;;;;1.73;1.17;;;;;;;6.85;73.43;98565.19;5051709;28;20040;-24
2022/02/21 04:35:13;;;;;;;1.33;1.10;;;;;;;6.82;73.44;98547.78;5054049;28;20029;-24
2022/02/21 04:37:39;;;;;;;2.88;1.27;;;;;;;6.77;72.88;98526.97;5054695;28;20016;-23
2022/02/21 04:40:07;;;;;;;1.30;1.20;;;;;;;6.73;73.38;98535.81;5047574;28;20024;-24
2022/02/21 04:42:32;;;;;;;2.13;1.20;;;;;;;6.69;73.48;98573.47;5049338;28;20052;-24
2022/02/21 04:44:57;;;;;;;2.55;1.65;;;;;;;6.67;73.39;98593.63;5048309;28;20486;-24
2022/02/21 04:47:23;;;;;;;1.33;1.20;;;;;;;6.64;73.56;98583.22;5050603;28;20024;-25
2022/02/21 04:49:48;;;;;;;1.50;1.40;;;;;;;6.61;73.49;98583.31;5051842;28;20110;-24
2022/02/21 04:52:14;;;;;;;2.25;1.10;;;;;;;6.57;73.22;98607.84;5051534;28;20044;-24
2022/02/21 04:54:39;;;;;;;2.72;1.63;;;;;;;6.50;72.15;98602.78;5050649;28;21136;-24
2022/02/21 04:57:05;;;;;;;1.52;1.30;;;;;;;6.49;72.33;98601.06;5051569;28;20479;-23
2022/02/21 04:59:30;;;;;;;2.88;1.63;;;;;;;6.46;73.16;98613.34;5050055;28;20036;-24
2022/02/21 05:01:59;;;;;;;3.10;1.48;;;;;;;6.43;73.02;98611.69;5049640;28;20040;-24
2022/02/21 05:04:25;;;;;;;3.25;1.40;;;;;;;6.38;73.60;98603.09;5051023;28;20020;-24
2022/02/21 05:06:50;;;;;;;3.40;2.15;;;;;;;6.33;72.34;98604.97;5049672;28;20047;-24
2022/02/21 05:09:16;;;;;;;4.47;1.92;;;;;;;6.31;72.43;98604.13;5050015;28;20051;-24
2022/02/21 05:11:41;;;;;;;2.25;1.42;;;;;;;6.26;72.81;98620.81;5049637;28;20082;-24
2022/02/21 05:14:06;;;;;;;2.35;1.60;;;;;;;6.23;72.33;98622.63;5049809;28;20099;-24
2022/02/21 05:16:32;;;;;;;2.85;1.83;;;;;;;6.20;72.68;98628.81;5050226;28;20108;-24
2022/02/21 05:19:02;;;;;;;5.00;1.88;;;;;;;6.19;72.86;98626.22;5049260;28;20017;-24
2022/02/21 05:21:30;;;;;;;1.98;1.40;;;;;;;6.15;72.57;98660.34;5047316;28;20130;-23
2022/02/21 05:23:56;;;;;;;2.88;1.40;;;;;;;6.12;72.52;98665.66;5048060;28;20116;-23
2022/02/21 05:26:22;;;;;;;2.72;1.40;;;;;;;6.10;72.88;98671.81;5051745;28;20112;-23
2022/02/21 05:28:47;;;;;;;3.70;1.30;;;;;;;6.03;72.36;98671.06;5046619;28;20040;-24
2022/02/21 05:31:13;;;;;;;4.00;1.30;;;;;;;6.02;71.36;98675.44;5049285;28;20530;-24
2022/02/21 05:33:38;;;;;;;1.83;1.30;;;;;;;6.01;71.49;98671.09;5047949;28;20079;-24
2022/02/21 05:36:04;;;;;;;2.85;1.30;;;;;;;6.00;72.10;98666.75;5052438;28;20028;-24
2022/02/21 05:38:29;;;;;;;2.75;1.40;;;;;;;5.97;71.97;98677.28;5050384;28;20383;-24
2022/02/21 05:40:55;;;;;;;5.88;1.60;;;;;;;5.94;71.97;98698.31;5050662;28;20027;-24
2022/02/21 05:43:20;;;;;;;2.13;1.20;;;;;;;5.88;71.66;98693.19;5051240;28;20123;-23
2022/02/21 05:45:45;;;;;;;2.40;1.35;;;;;;;5.84;71.38;98687.16;5051878;28;20071;-24
2022/02/21 05:48:11;;;;;;;2.60;1.73;;;;;;;5.84;71.94;98691.53;5054388;28;20028;-23
2022/02/21 05:50:36;;;;;;;4.25;1.80;;;;;;;5.77;70.75;98701.28;5052219;28;20021;-24
2022/02/21 05:53:01;;;;;;;3.85;2.08;;;;;;;5.71;71.30;98725.81;5046024;28;20051;-23
2022/02/21 05:55:27;;;;;;;3.35;1.23;;;;;;;5.68;71.19;98733.72;5045524;28;20021;-24
2022/02/21 05:57:57;;;;;;;3.92;1.45;;;;;;;5.65;72.04;98739.88;5047924;28;20064;-23
2022/02/21 06:00:22;;;;;;;3.25;1.65;;;;;;;5.61;71.66;98739.97;5049177;28;20021;-23
2022/02/21 06:02:48;;;;;;;3.90;1.75;;;;;;;5.58;72.03;98760.94;5048865;28;20394;-24
2022/02/21 06:05:13;;;;;;;2.97;1.95;;;;;;;5.58;71.75;98758.34;5050156;28;20468;-24
2022/02/21 06:07:38;;;;;;;3.70;1.90;;;;;;;5.55;72.15;98761.88;5053915;28;20403;-24
2022/02/21 06:10:04;;;;;;;2.25;1.60;;;;;;;5.52;72.04;98767.16;5048392;28;20114;-24
2022/02/21 06:12:30;;;;;;;2.08;1.63;;;;;;;5.49;72.35;98775.06;5052342;28;20028;-24
2022/02/21 06:14:55;;;;;;;4.38;1.83;;;;;;;5.48;72.02;98789.91;5049211;28;20032;-23
2022/02/21 06:17:20;;;;;;;6.00;1.77;;;;;;;5.43;71.84;98781.25;5048847;28;20033;-24
2022/02/21 06:19:46;;;;;;;3.17;1.52;;;;;;;5.42;72.07;98795.22;5048343;28;20382;-24
2022/02/21 06:22:11;;;;;;;2.95;1.67;;;;;;;5.38;71.44;98804.88;5049940;28;20021;-23
2022/02/21 06:24:36;;;;;;;3.97;1.50;;;;;;;5.36;71.30;98792.72;5050439;28;20021;-24
2022/02/21 06:27:03;;;;;;;1.73;1.30;;;;;;;5.32;71.60;98796.28;5050335;28;20061;-24
2022/02/21 06:29:29;;;;;;;2.08;1.42;;;;;;;5.30;72.02;98804.16;5049375;28;20098;-24
2022/02/21 06:31:55;;;;;;;3.28;1.33;;;;;;;5.28;71.78;98808.56;5050169;28;20056;-24
2022/02/21 06:34:20;;;;;;;3.38;1.30;;;;;;;5.24;72.12;98801.66;5048409;28;20033;-23
2022/02/21 06:36:46;;;;;;;6.88;1.80;;;;;;;5.19;71.18;98812.19;5049082;28;20075;-24
2022/02/21 06:39:11;;;;;;;7.45;1.83;;;;;;;5.16;71.50;98801.78;5050227;28;20473;-23
2022/02/21 06:41:36;;;;;;;3.75;1.48;;;;;;;5.15;71.47;98815.75;5051051;28;20016;-24
2022/02/21 06:44:02;;;;;;;4.18;1.67;;;;;;;5.11;71.38;98829.75;5054636;28;20039;-23
2022/02/21 06:46:27;;;;;;;2.15;1.70;;;;;;;5.05;71.37;98832.44;5054236;28;20119;-24
2022/02/21 06:48:53;;;;;;;3.20;1.50;;;;;;;5.00;71.02;98841.22;5052618;28;20033;-24
2022/02/21 06:51:19;;;;;;;3.03;1.90;;;;;;;4.95;70.53;98848.28;5054439;28;20024;-23
2022/02/21 06:53:44;;;;;;;4.65;1.60;;;;;;;4.93;71.00;98850.03;5052704;28;20028;-24
2022/02/21 06:56:10;;;;;;;6.05;2.05;;;;;;;4.92;71.63;98858.78;5054725;28;20049;-24
2022/02/21 06:58:36;;;;;;;4.25;1.45;;;;;;;4.88;71.56;98860.56;5056462;28;20036;-24
2022/02/21 07:01:02;;;;;;;4.07;1.27;;;;;;;4.87;71.82;98856.22;5049002;28;20037;-24
2022/02/21 07:03:27;;;;;;;3.83;1.63;;;;;;;4.86;72.43;98871.91;5056965;28;20017;-24
2022/02/21 07:05:53;;;;;;;2.60;1.85;;;;;;;4.84;72.44;98871.94;5044413;28;20044;-24
2022/02/21 07:08:18;;;;;;;4.28;1.73;;;;;;;4.83;72.00;98871.97;5053673;28;20028;-24
2022/02/21 07:10:43;;;;;;;5.32;1.52;;;;;;;4.80;72.42;98887.72;5053798;28;20372;-24
2022/02/21 07:13:09;;;;;;;6.72;1.98;;;;;;;4.80;71.96;98895.53;5052196;28;20406;-24
2022/02/21 07:15:34;;;;;;;3.40;1.65;;;;;;;4.78;72.30;98898.16;5052999;28;20028;-24
2022/02/21 07:18:00;;;;;;;5.80;1.98;;;;;;;4.74;72.25;98897.34;5051116;28;20164;-24
2022/02/21 07:20:26;;;;;;;2.35;2.00;;;;;;;4.72;71.64;98898.25;5053677;28;20024;-24
2022/02/21 07:22:52;;;;;;;6.63;1.90;;;;;;;4.69;72.24;98901.75;5052702;28;20028;-24
2022/02/21 07:25:17;;;;;;;5.68;1.77;;;;;;;4.70;72.16;98910.47;5052126;28;20033;-24
2022/02/21 07:27:44;;;;;;;4.68;2.15;;;;;;;4.67;71.89;98910.50;5052902;28;20119;-24
2022/02/21 07:30:11;;;;;;;2.80;2.50;;;;;;;4.64;72.65;98903.59;5053283;28;20029;-24
2022/02/21 07:32:37;;;;;;;4.40;2.20;;;;;;;4.67;72.35;98915.75;5054162;28;20035;-24
2022/02/21 07:35:02;;;;;;;3.70;2.15;;;;;;;4.66;73.05;98909.63;5053756;28;20194;-24
2022/02/21 07:37:27;;;;;;;5.45;2.10;;;;;;;4.63;72.24;98912.28;5053479;28;20025;-24
2022/02/21 07:39:53;;;;;;;3.40;2.30;;;;;;;4.63;72.93;98909.66;5052625;28;20414;-23
2022/02/21 07:42:18;;;;;;;3.47;2.08;;;;;;;4.61;71.93;98916.69;5051355;28;20017;-23
2022/02/21 07:44:43;;;;;;;7.20;2.25;;;;;;;4.62;72.51;98921.00;5052615;28;20039;-24
2022/02/21 07:47:10;;;;;;;5.43;2.20;;;;;;;4.63;71.78;98925.34;5050531;28;20692;-24
2022/02/21 07:49:35;;;;;;;3.97;1.92;;;;;;;4.62;72.28;98923.63;5057034;28;20123;-24
2022/02/21 07:52:00;;;;;;;3.20;2.17;;;;;;;4.63;72.13;98925.34;5052351;28;20304;-24
2022/02/21 07:54:26;;;;;;;6.03;2.20;;;;;;;4.62;72.19;98942.78;5052474;28;20377;-24
2022/02/21 07:56:51;;;;;;;4.30;2.13;;;;;;;4.64;71.80;98934.94;5051510;28;20017;-24
2022/02/21 07:59:17;;;;;;;5.72;2.53;;;;;;;4.66;72.71;98935.75;5051174;28;20017;-24
2022/02/21 08:01:43;;;;;;;3.80;2.10;;;;;;;4.68;72.20;98944.44;5053552;28;20028;-24
2022/02/21 08:04:08;;;;;;;8.13;2.35;;;;;;;4.69;72.25;98956.63;5052878;28;20545;-24
2022/02/21 08:06:33;;;;;;;4.15;2.13;;;;;;;4.72;72.55;98960.94;5051528;28;20395;-24
2022/02/21 08:08:59;;;;;;;5.28;2.47;;;;;;;4.73;72.57;98968.75;5052250;28;20025;-24
2022/02/21 08:11:24;;;;;;;2.60;1.77;;;;;;;4.73;73.03;98976.59;5049208;28;20112;-24
2022/02/21 08:13:50;;;;;;;7.38;2.10;;;;;;;4.77;72.96;98982.63;5050021;28;20040;-24
2022/02/21 08:16:15;;;;;;;3.55;2.40;;;;;;;4.78;73.20;98980.88;5049708;28;20029;-24
2022/02/21 08:18:40;;;;;;;2.90;1.70;;;;;;;4.79;73.13;98988.69;5050318;28;20112;-24
2022/02/21 08:21:06;;;;;;;5.22;1.63;;;;;;;4.82;72.84;99003.47;5052715;28;20037;-24
2022/02/21 08:23:31;;;;;;;2.55;1.38;;;;;;;4.82;72.44;98990.41;5064244;28;20024;-24
2022/02/21 08:25:57;;;;;;;3.55;1.85;;;;;;;4.85;73.20;98992.97;5067262;28;20024;-24
2022/02/21 08:28:23;;;;;;;5.40;1.67;;;;;;;4.86;73.52;98984.25;5064250;28;20024;-24
2022/02/21 08:30:48;;;;;;;2.60;1.23;;;;;;;4.86;72.90;98994.69;5065039;28;20032;-24
2022/02/21 08:33:14;;;;;;;1.90;1.55;;;;;;;4.88;73.51;99000.78;5068883;28;20373;-24
2022/02/21 08:35:39;;;;;;;1.83;1.02;;;;;;;4.89;74.13;99010.34;5054718;28;20903;-24
2022/02/21 08:38:05;;;;;;;2.50;1.30;;;;;;;4.90;74.01;99006.84;5054180;28;20038;-23
2022/02/21 08:40:30;;;;;;;3.60;1.20;;;;;;;4.91;73.20;99005.97;5057177;28;20082;-23
2022/02/21 08:42:55;;;;;;;2.33;1.73;;;;;;;4.92;73.37;99020.75;5050448;28;20029;-23
2022/02/21 08:45:22;;;;;;;3.40;1.23;;;;;;;4.92;72.94;99026.00;5050674;28;20118;-23
2022/02/21 08:47:47;;;;;;;5.63;1.42;;;;;;;4.92;72.79;99030.34;5052539;28;20021;-24
2022/02/21 08:50:13;;;;;;;3.90;1.40;;;;;;;4.92;72.55;99041.66;5050460;28;21937;-23
2022/02/21 08:52:40;;;;;;;2.55;1.30;;;;;;;4.92;71.94;99035.56;5050387;28;20086;-23
2022/02/21 08:55:07;;;;;;;2.65;1.23;;;;;;;4.93;72.09;99040.78;5051507;28;20020;-23
2022/02/21 08:57:35;;;;;;;3.75;1.88;;;;;;;4.95;73.40;99046.84;5049993;28;20033;-24
2022/02/21 09:00:01;;;;;;;4.07;1.73;;;;;;;4.95;72.40;99038.16;5048242;28;20017;-24
2022/02/21 09:02:27;;;;;;;2.20;1.05;;;;;;;4.98;73.08;99054.66;5049953;28;20028;-23
2022/02/21 09:04:52;;;;;;;5.85;1.88;;;;;;;4.98;72.39;99052.06;5047072;28;20298;-24
2022/02/21 09:07:17;;;;;;;6.15;1.98;;;;;;;5.01;72.77;99054.59;5051680;28;20106;-24
2022/02/21 09:09:43;;;;;;;7.18;1.50;;;;;;;5.04;72.12;99065.91;5050138;28;20021;-24
2022/02/21 09:12:08;;;;;;;3.50;1.83;;;;;;;5.07;72.36;99071.13;5051124;28;20024;-24
2022/02/21 09:14:34;;;;;;;2.78;1.60;;;;;;;5.08;71.33;99065.00;5053718;28;20031;-23
2022/02/21 09:16:59;;;;;;;5.95;1.73;;;;;;;5.11;71.57;99047.50;5052195;28;20025;-23
2022/02/21 09:19:24;;;;;;;3.67;1.90;;;;;;;5.16;72.54;99051.84;5049213;28;20028;-23
2022/02/21 09:21:50;;;;;;;3.15;1.10;;;;;;;5.20;71.90;99056.16;5052272;28;20025;-23
2022/02/21 09:24:15;;;;;;;3.00;1.48;;;;;;;5.23;72.30;99067.41;5052377;28;20044;-23
2022/02/21 09:26:40;;;;;;;1.20;1.08;;;;;;;5.25;71.96;99056.94;5048649;28;20020;-23
2022/02/21 09:29:06;;;;;;;3.90;1.20;;;;;;;5.30;71.90;99056.88;5047092;28;20025;-23
2022/02/21 09:31:32;;;;;;;2.65;1.00;;;;;;;5.33;71.92;99062.06;5053946;28;20111;-23
2022/02/21 09:33:57;;;;;;;6.88;1.35;;;;;;;5.38;72.21;99066.31;5050906;28;20036;-23
2022/02/21 09:36:22;;;;;;;2.78;1.20;;;;;;;5.39;72.07;99062.84;5050064;28;20029;-23
2022/02/21 09:38:48;;;;;;;2.67;1.33;;;;;;;5.45;71.72;99061.91;5051248;28;20489;-23
2022/02/21 09:41:13;;;;;;;3.75;1.50;;;;;;;5.48;72.13;99069.72;5050878;28;20037;-23
2022/02/21 09:43:39;;;;;;;3.75;1.35;;;;;;;5.52;72.00;99068.78;5049769;28;20067;-23
2022/02/21 09:46:12;;;;;;;2.67;1.65;;;;;;;5.56;72.00;99084.41;5050724;28;20056;-23
2022/02/21 09:48:39;;;;;;;4.50;1.67;;;;;;;5.58;71.58;99067.81;5051197;28;20037;-23
2022/02/21 09:51:06;;;;;;;1.85;0.88;;;;;;;5.60;71.58;99081.72;5050214;28;20103;-23
2022/02/21 09:53:36;;;;;;;3.58;1.60;;;;;;;5.64;71.87;99067.72;5051071;28;20383;-24
2022/02/21 09:56:03;;;;;;;3.60;1.73;;;;;;;5.66;71.15;99065.06;5047569;28;20483;-23
2022/02/21 09:58:29;;;;;;;3.72;1.00;;;;;;;5.69;71.29;99065.03;5046828;28;20048;-23
2022/02/21 10:00:54;;;;;;;3.72;1.25;;;;;;;5.71;71.89;99063.28;5047824;28;20025;-23
2022/02/21 10:03:37;;;;;;;4.43;1.25;;;;;;;5.74;72.21;99057.97;5050290;28;20096;-23
2022/02/21 10:06:24;;;;;;;5.22;1.33;;;;;;;5.78;71.18;99056.19;5050284;28;20086;-22
2022/02/21 10:09:08;;;;;;;3.03;1.25;;;;;;;5.83;70.96;99053.50;5050210;28;20474;-23
2022/02/21 10:11:44;;;;;;;4.40;1.58;;;;;;;5.85;71.49;99064.81;5050647;28;20040;-24
2022/02/21 10:14:14;;;;;;;4.72;1.67;;;;;;;5.88;70.75;99057.78;5048128;28;20398;-23
2022/02/21 10:16:46;;;;;;;3.35;1.95;;;;;;;5.90;70.88;99057.72;5063083;28;20379;-23
2022/02/21 10:19:18;;;;;;;4.10;1.50;;;;;;;5.94;71.68;99066.41;5060020;28;20063;-23
2022/02/21 10:22:07;;;;;;;5.97;2.15;;;;;;;5.97;71.44;99069.84;5057270;28;20570;-23
2022/02/21 10:24:41;;;;;;;3.47;1.13;;;;;;;6.00;70.79;99067.16;5058101;28;20028;-23
2022/02/21 10:27:14;;;;;;;3.75;1.73;;;;;;;6.03;70.16;99075.00;5052571;28;20074;-23
2022/02/21 10:29:46;;;;;;;2.15;1.48;;;;;;;6.06;69.69;99075.88;5055169;28;20144;-23
2022/02/21 10:32:13;;;;;;;4.50;1.70;;;;;;;6.10;68.91;99085.41;5049850;28;20123;-23
2022/02/21 10:34:38;;;;;;;4.10;1.45;;;;;;;6.12;69.75;99086.22;5050247;28;20025;-24
2022/02/21 10:37:05;;;;;;;4.57;1.85;;;;;;;6.15;69.52;99094.03;5049621;28;20044;-24
2022/02/21 10:39:31;;;;;;;5.18;1.65;;;;;;;6.18;70.13;99088.75;5049012;28;20103;-25
2022/02/21 10:41:57;;;;;;;2.63;1.45;;;;;;;6.18;69.09;99091.38;5049372;28;20064;-24
2022/02/21 10:44:28;;;;;;;5.93;1.48;;;;;;;6.21;69.03;99093.06;5049106;28;20494;-24
2022/02/21 10:47:00;;;;;;;;;;;;;;;6.21;69.10;99093.94;5049212;28;20116;-23
2022/02/21 10:49:25;;;;;;;3.80;2.90;;;;;;;6.23;68.84;99101.75;5046668;28;20590;-24
2022/02/21 10:51:51;;;;;;;3.88;1.63;;;;;;;6.22;67.99;99092.16;5065020;28;20086;-24
2022/02/21 10:54:16;;;;;;;2.15;1.27;;;;;;;6.24;67.50;99103.50;5050662;28;20029;-23
2022/02/21 10:56:43;;;;;;;2.95;1.25;;;;;;;6.24;67.67;99099.09;5050360;28;20391;-24
2022/02/21 10:59:20;;;;;;;4.72;1.70;;;;;;;6.25;67.43;99105.22;5048847;28;20518;-23
2022/02/21 11:01:47;;;;;;;5.75;1.75;;;;;;;6.28;67.50;99089.44;5048075;28;20044;-24
2022/02/21 11:04:13;;;;;;;4.07;1.80;;;;;;;6.29;67.27;99089.44;5047052;28;20017;-24
2022/02/21 11:06:38;;;;;;;6.82;1.63;;;;;;;6.32;68.01;99100.72;5047747;28;20029;-24
2022/02/21 11:09:06;;;;;;;2.20;1.30;;;;;;;6.35;68.59;99079.72;5047371;28;20569;-24
2022/02/21 11:11:32;;;;;;;1.83;1.35;;;;;;;6.37;67.45;99089.28;5046530;28;20032;-23
2022/02/21 11:13:58;;;;;;;2.40;1.00;;;;;;;6.41;68.12;99087.50;5048224;28;21168;-23
2022/02/21 11:16:23;;;;;;;1.65;1.55;;;;;;;6.43;68.21;99096.16;5046048;28;20032;-23
2022/02/21 11:18:49;;;;;;;3.30;1.40;;;;;;;6.44;67.70;99087.44;5046737;28;20025;-23
2022/02/21 11:21:15;;;;;;;1.98;1.00;;;;;;;6.48;67.72;99086.50;5047411;28;20024;-24
2022/02/21 11:23:41;;;;;;;3.55;1.35;;;;;;;6.52;67.66;99098.63;5046943;28;20367;-24
2022/02/21 11:26:16;;;;;;;3.30;1.40;;;;;;;6.53;67.58;99095.13;5045785;28;20037;-25
2022/02/21 11:28:54;;;;;;;3.58;1.33;;;;;;;6.58;66.72;99094.19;5050838;28;20031;-23
2022/02/21 11:31:28;;;;;;;5.18;1.70;;;;;;;6.62;67.36;99093.22;5048334;28;20052;-24
2022/02/21 11:34:01;;;;;;;4.47;1.73;;;;;;;6.64;66.67;99094.06;5051063;28;20036;-24
2022/02/21 11:36:28;;;;;;;2.53;1.30;;;;;;;6.67;65.53;99100.09;5049075;28;20025;-24